createdAt,value
2022-11-03T00:01:49.059Z,15.01
2022-11-03T00:06:54.984Z,15.12
2022-11-03T00:11:57.312Z,14.87
2022-11-03T00:16:59.644Z,14.93
2022-11-03T00:22:02.414Z,14.91
2022-11-03T00:27:04.963Z,14.63
2022-11-03T00:32:07.158Z,14.52
2022-11-03T00:37:09.348Z,14.58
2022-11-03T00:42:11.521Z,14.40
2022-11-03T00:47:13.721Z,14.42
2022-11-03T00:52:15.922Z,14.46
2022-11-03T00:57:18.263Z,14.56
2022-11-03T01:02:20.646Z,14.35
2022-11-03T01:07:22.926Z,14.50
2022-11-03T01:12:25.137Z,14.36
2022-11-03T01:17:28.776Z,14.31
2022-11-03T01:22:30.960Z,14.41
2022-11-03T01:27:35.614Z,14.36
2022-11-03T01:32:37.967Z,14.39
2022-11-03T01:37:40.146Z,14.25
2022-11-03T01:42:42.381Z,13.99
2022-11-03T01:47:45.159Z,14.39
2022-11-03T01:52:58.673Z,14.32
2022-11-03T01:58:06.336Z,14.42
2022-11-03T02:03:08.877Z,14.29
2022-11-03T02:08:22.879Z,14.25
2022-11-03T02:13:27.916Z,14.21
2022-11-03T02:18:33.517Z,13.97
2022-11-03T02:23:53.793Z,13.89
2022-11-03T02:28:55.889Z,13.83
2022-11-03T02:34:00.642Z,13.69
2022-11-03T02:39:15.219Z,13.74
2022-11-03T02:44:20.336Z,13.52
2022-11-03T02:49:22.631Z,13.78
2022-11-03T02:54:32.907Z,13.60
2022-11-03T02:59:44.324Z,13.47
2022-11-03T03:04:56.941Z,13.46
2022-11-03T03:10:27.564Z,13.33
2022-11-03T03:15:37.721Z,13.51
2022-11-03T03:21:00.277Z,13.45
2022-11-03T03:26:09.999Z,13.43
2022-11-03T03:31:15.132Z,13.36
2022-11-03T03:36:19.528Z,13.30
2022-11-03T03:41:24.465Z,13.37
2022-11-03T03:46:34.164Z,13.47
2022-11-03T03:51:38.240Z,13.34
2022-11-03T03:56:48.507Z,13.17
2022-11-03T04:01:51.120Z,13.13
2022-11-03T04:07:16.523Z,13.12
2022-11-03T04:12:37.630Z,13.15
2022-11-03T04:18:03.069Z,12.99
2022-11-03T04:23:05.416Z,12.99
2022-11-03T04:28:15.265Z,13.02
2022-11-03T04:33:20.747Z,12.97
2022-11-03T04:38:26.221Z,13.08
2022-11-03T04:43:36.474Z,12.93
2022-11-03T04:48:38.775Z,12.93
2022-11-03T04:53:48.893Z,12.85
2022-11-03T04:58:52.171Z,12.86
2022-11-03T05:03:55.514Z,13.00
2022-11-03T05:09:02.531Z,13.07
2022-11-03T05:14:30.616Z,13.12
2022-11-03T05:19:37.022Z,13.17
2022-11-03T05:24:39.446Z,13.06
2022-11-03T05:29:41.976Z,13.17
2022-11-03T05:34:48.351Z,13.13
2022-11-03T05:39:52.833Z,12.95
2022-11-03T05:44:55.773Z,12.97
2022-11-03T05:50:08.310Z,13.09
2022-11-03T05:55:24.992Z,13.16
2022-11-03T06:00:33.854Z,13.28
2022-11-03T06:05:36.308Z,13.25
2022-11-03T06:10:46.342Z,13.26
2022-11-03T06:15:49.016Z,13.43
2022-11-03T06:20:59.108Z,13.49
2022-11-03T06:26:03.563Z,13.66
2022-11-03T06:31:20.289Z,13.46
2022-11-03T06:36:35.673Z,13.98
2022-11-03T06:41:38.053Z,14.19
2022-11-03T06:46:40.224Z,14.28
2022-11-03T06:51:42.453Z,14.34
2022-11-03T06:56:44.890Z,14.57
2022-11-03T07:01:56.245Z,14.58
2022-11-03T07:07:03.308Z,14.63
2022-11-03T07:12:16.771Z,14.96
2022-11-03T07:17:22.368Z,15.28
2022-11-03T07:22:26.850Z,15.43
2022-11-03T07:27:32.028Z,15.62
2022-11-03T07:32:35.774Z,15.79
2022-11-03T07:37:38.259Z,15.83
2022-11-03T07:42:40.532Z,16.08
2022-11-03T07:47:44.737Z,16.30
2022-11-03T07:52:47.152Z,16.48
2022-11-03T07:57:49.361Z,16.57
2022-11-03T08:03:02.694Z,16.68
2022-11-03T08:08:05.247Z,16.89
2022-11-03T08:13:07.998Z,17.17
2022-11-03T08:18:10.453Z,17.28
2022-11-03T08:23:25.339Z,17.52
2022-11-03T08:28:28.484Z,17.70
2022-11-03T08:33:34.077Z,17.78
2022-11-03T08:38:36.893Z,18.18
2022-11-03T08:43:41.865Z,18.23
2022-11-03T08:48:44.409Z,18.45
2022-11-03T08:53:50.835Z,18.65
2022-11-03T08:58:53.084Z,18.77
2022-11-03T09:03:55.319Z,19.03
2022-11-03T09:14:19.848Z,19.12
2022-11-03T09:19:22.266Z,19.35
2022-11-03T09:24:24.450Z,19.38
2022-11-03T09:29:30.043Z,19.59
2022-11-03T09:34:38.762Z,19.70
2022-11-03T09:39:41.106Z,19.94
2022-11-03T09:44:43.604Z,20.11
2022-11-03T09:49:45.800Z,20.34
2022-11-03T09:54:48.246Z,20.51
2022-11-03T09:59:51.925Z,20.71
2022-11-03T10:04:56.691Z,20.83
2022-11-03T10:10:01.775Z,21.06
2022-11-03T10:15:04.243Z,20.97
2022-11-03T10:20:16.245Z,21.06
2022-11-03T10:25:38.798Z,21.38
2022-11-03T10:31:18.545Z,21.52
2022-11-03T10:36:20.742Z,21.75
2022-11-03T10:41:25.120Z,21.85
2022-11-03T10:51:55.081Z,22.01
2022-11-03T10:56:57.270Z,22.34
2022-11-03T11:02:00.551Z,22.40
2022-11-03T11:07:03.043Z,22.67
2022-11-03T11:12:15.443Z,22.69
2022-11-03T11:17:56.211Z,22.89
2022-11-03T11:23:30.195Z,23.08
2022-11-03T11:28:32.575Z,23.03
2022-11-03T11:33:34.839Z,23.37
2022-11-03T11:38:52.882Z,23.46
2022-11-03T11:43:55.112Z,23.51
2022-11-03T11:48:57.254Z,23.78
2022-11-03T11:54:17.167Z,23.91
2022-11-03T11:59:25.576Z,24.06
2022-11-03T12:04:31.817Z,24.08
2022-11-03T12:09:34.429Z,24.03
2022-11-03T12:14:38.796Z,24.26
2022-11-03T12:19:41.415Z,24.60
2022-11-03T12:24:49.540Z,24.69
2022-11-03T12:29:53.615Z,24.83
2022-11-03T12:34:57.064Z,24.87
2022-11-03T12:39:59.425Z,24.96
2022-11-03T12:45:01.852Z,25.25
2022-11-03T12:50:05.019Z,25.39
2022-11-03T12:55:07.648Z,25.36
2022-11-03T13:00:10.445Z,25.60
2022-11-03T13:05:15.710Z,25.76
2022-11-03T13:10:18.052Z,25.84
2022-11-03T13:15:20.360Z,26.08
2022-11-03T13:20:23.006Z,26.23
2022-11-03T13:25:25.380Z,26.14
2022-11-03T13:30:28.060Z,26.40
2022-11-03T13:35:30.667Z,26.46
2022-11-03T13:45:59.372Z,26.62
2022-11-03T13:51:02.322Z,26.59
2022-11-03T13:56:08.552Z,26.67
2022-11-03T14:01:11.736Z,26.75
2022-11-03T14:06:14.217Z,26.91
2022-11-03T14:11:35.044Z,26.97
2022-11-03T14:16:37.582Z,26.82
2022-11-03T14:21:43.223Z,26.98
2022-11-03T14:26:45.897Z,26.89
2022-11-03T14:31:48.670Z,26.83
2022-11-03T14:36:51.475Z,26.69
2022-11-03T14:42:06.133Z,26.44
2022-11-03T14:47:11.191Z,26.22
2022-11-03T14:52:14.811Z,25.80
2022-11-03T14:57:17.353Z,25.32
2022-11-03T15:02:19.703Z,24.88
2022-11-03T15:07:22.407Z,24.48
2022-11-03T15:12:24.869Z,24.18
2022-11-03T15:17:27.395Z,23.95
2022-11-03T15:27:52.486Z,23.39
2022-11-03T15:32:57.041Z,23.17
2022-11-03T15:37:59.702Z,22.87
2022-11-03T15:43:03.267Z,22.60
2022-11-03T15:48:06.184Z,22.48
2022-11-03T15:53:08.620Z,22.37
2022-11-03T15:58:11.181Z,22.10
2022-11-03T16:03:13.986Z,21.92
2022-11-03T16:08:16.773Z,21.72
2022-11-03T16:13:19.561Z,21.61
2022-11-03T16:18:22.539Z,21.52
2022-11-03T16:23:25.547Z,21.33
2022-11-03T16:28:28.549Z,21.22
2022-11-03T16:33:31.045Z,21.09
2022-11-03T16:38:33.595Z,20.99
2022-11-03T16:43:36.157Z,21.03
2022-11-03T16:48:38.549Z,20.89
2022-11-03T16:53:40.995Z,20.70
2022-11-03T16:58:43.574Z,20.55
2022-11-03T17:03:46.175Z,20.41
2022-11-03T17:08:53.207Z,20.38
2022-11-03T17:13:56.206Z,20.32
2022-11-03T17:18:59.427Z,20.31
2022-11-03T17:24:02.287Z,20.21
2022-11-03T17:29:05.408Z,20.08
2022-11-03T17:34:11.657Z,20.11
2022-11-03T17:39:17.627Z,20.11
2022-11-03T17:44:20.293Z,20.00
2022-11-03T17:49:22.790Z,20.05
2022-11-03T17:54:28.135Z,19.95
2022-11-03T17:59:30.913Z,19.88
2022-11-03T18:04:33.603Z,19.66
2022-11-03T18:09:36.015Z,19.68
2022-11-03T18:14:38.292Z,19.61
2022-11-03T18:19:40.821Z,19.48
2022-11-03T18:24:43.474Z,19.41
2022-11-03T18:29:46.093Z,19.48
2022-11-03T18:34:48.440Z,19.44
2022-11-03T18:39:50.888Z,19.44
2022-11-03T18:44:53.156Z,19.35
2022-11-03T18:49:55.694Z,19.24
2022-11-03T18:54:58.043Z,19.12
2022-11-03T19:00:01.624Z,19.10
2022-11-03T19:05:04.013Z,19.16
2022-11-03T19:10:12.891Z,19.01
2022-11-03T19:15:23.580Z,19.09
2022-11-03T19:20:25.961Z,18.90
2022-11-03T19:25:28.395Z,18.80
2022-11-03T19:30:30.953Z,18.80
2022-11-03T19:35:35.802Z,18.79
2022-11-03T19:40:39.528Z,18.73
2022-11-03T19:45:42.327Z,18.59
2022-11-03T19:50:45.548Z,18.55
2022-11-03T19:55:49.070Z,18.57
2022-11-03T20:00:52.865Z,18.34
2022-11-03T20:05:57.716Z,18.46
2022-11-03T20:11:00.389Z,18.32
2022-11-03T20:16:02.693Z,18.46
2022-11-03T20:21:05.263Z,18.42
2022-11-03T20:26:23.351Z,18.50
2022-11-03T20:31:25.998Z,18.40
2022-11-03T20:36:31.225Z,18.49
2022-11-03T20:41:33.863Z,18.29
2022-11-03T20:46:36.915Z,18.32
2022-11-03T20:51:44.805Z,18.17
2022-11-03T20:56:48.315Z,18.39
2022-11-03T21:01:52.788Z,18.32
2022-11-03T21:06:55.775Z,18.32
2022-11-03T21:11:58.190Z,18.30
2022-11-03T21:17:19.187Z,18.19
2022-11-03T21:22:50.674Z,18.20
2022-11-03T21:27:47.276Z,18.13
2022-11-03T21:32:50.325Z,18.05
2022-11-03T21:37:53.021Z,17.96
2022-11-03T21:43:14.095Z,17.92
2022-11-03T21:48:35.352Z,17.93
2022-11-03T21:53:37.532Z,17.75
2022-11-03T21:58:40.808Z,17.90
2022-11-03T22:03:43.117Z,17.78
2022-11-03T22:08:45.447Z,17.76
2022-11-03T22:13:52.152Z,17.67
2022-11-03T22:19:14.461Z,17.22
2022-11-03T22:24:35.526Z,17.06
2022-11-03T22:29:56.113Z,17.02
2022-11-03T22:35:24.713Z,16.83
2022-11-03T22:40:45.531Z,16.65
2022-11-03T22:45:55.415Z,16.47
2022-11-03T22:51:05.352Z,16.39
2022-11-03T22:56:08.208Z,16.26
2022-11-03T23:01:13.054Z,16.24
2022-11-03T23:06:18.320Z,16.01
2022-11-03T23:11:26.028Z,15.92
2022-11-03T23:16:33.811Z,15.92
2022-11-03T23:21:36.644Z,15.83
2022-11-03T23:26:39.500Z,15.60
2022-11-03T23:31:43.750Z,15.54
2022-11-03T23:36:46.386Z,15.52
2022-11-03T23:41:50.792Z,15.60
2022-11-03T23:47:11.740Z,15.44
2022-11-03T23:52:14.284Z,15.40
2022-11-03T23:57:45.632Z,15.13
